Time,TemperatureF,DewpointF,PressureIn,WindDirection,WindDirectionDegrees,WindSpeedMPH,WindSpeedGustMPH,Humidity,HourlyPrecipIn,Conditions,Clouds,dailyrainin,SoftwareType,DateUTC
2013-05-21 00:10:00,63.7,61.0,29.95,SW,229,0.0,0.0,92,0.00,,,0.00,weatherlink.com 1.10,2013-05-21 04:10:00,
2013-05-21 00:25:00,63.4,61.0,29.95,SW,229,0.0,0.0,92,0.00,,,0.00,weatherlink.com 1.10,2013-05-21 04:25:00,
2013-05-21 00:40:00,63.2,61.0,29.95,SW,229,0.0,1.0,92,0.00,,,0.00,weatherlink.com 1.10,2013-05-21 04:40:00,
2013-05-21 00:55:00,62.9,61.0,29.95,SW,229,0.0,0.0,92,0.00,,,0.00,weatherlink.com 1.10,2013-05-21 04:55:00,
2013-05-21 01:10:00,62.7,61.0,29.95,SW,229,0.0,0.0,93,0.00,,,0.00,weatherlink.com 1.10,2013-05-21 05:10:00,
2013-05-21 01:25:00,62.5,61.0,29.95,SW,229,0.0,0.0,93,0.00,,,0.00,weatherlink.com 1.10,2013-05-21 05:25:00,
2013-05-21 01:40:00,62.1,60.0,29.94,SW,229,0.0,0.0,93,0.00,,,0.00,weatherlink.com 1.10,2013-05-21 05:40:00,
2013-05-21 01:55:00,61.8,60.0,29.94,SW,229,0.0,0.0,93,0.00,,,0.00,weatherlink.com 1.10,2013-05-21 05:55:00,
2013-05-21 02:10:00,61.6,60.0,29.94,SW,229,0.0,0.0,93,0.00,,,0.00,weatherlink.com 1.10,2013-05-21 06:10:00,
2013-05-21 02:25:00,61.4,60.0,29.93,SW,229,0.0,0.0,94,0.00,,,0.00,weatherlink.com 1.10,2013-05-21 06:25:00,
2013-05-21 02:40:00,61.2,60.0,29.93,SW,229,0.0,0.0,94,0.00,,,0.00,weatherlink.com 1.10,2013-05-21 06:40:00,
2013-05-21 02:55:00,60.9,59.0,29.93,SW,229,0.0,0.0,94,0.00,,,0.00,weatherlink.com 1.10,2013-05-21 06:55:00,
2013-05-21 03:10:00,60.8,59.0,29.92,SW,229,0.0,0.0,95,0.00,,,0.00,weatherlink.com 1.10,2013-05-21 07:10:00,
2013-05-21 03:25:00,60.5,59.0,29.91,SW,229,0.0,0.0,94,0.00,,,0.00,weatherlink.com 1.10,2013-05-21 07:25:00,
2013-05-21 03:40:00,60.3,59.0,29.91,SW,229,0.0,0.0,95,0.00,,,0.00,weatherlink.com 1.10,2013-05-21 07:40:00,
2013-05-21 03:55:00,60.1,59.0,29.91,SW,229,0.0,0.0,95,0.00,,,0.00,weatherlink.com 1.10,2013-05-21 07:55:00,
2013-05-21 04:10:00,59.9,59.0,29.92,SW,229,0.0,0.0,95,0.00,,,0.00,weatherlink.com 1.10,2013-05-21 08:10:00,
2013-05-21 04:25:00,59.5,58.0,29.92,SW,229,0.0,0.0,95,0.00,,,0.00,weatherlink.com 1.10,2013-05-21 08:25:00,
2013-05-21 04:40:00,59.4,58.0,29.92,SW,229,0.0,0.0,95,0.00,,,0.00,weatherlink.com 1.10,2013-05-21 08:40:00,
2013-05-21 04:55:00,59.5,58.0,29.93,SW,229,0.0,0.0,95,0.00,,,0.00,weatherlink.com 1.10,2013-05-21 08:55:00,
2013-05-21 05:10:00,59.3,58.0,29.93,SW,229,0.0,0.0,95,0.00,,,0.00,weatherlink.com 1.10,2013-05-21 09:10:00,
2013-05-21 05:25:00,59.2,58.0,29.94,SW,229,0.0,0.0,95,0.00,,,0.00,weatherlink.com 1.10,2013-05-21 09:25:00,
2013-05-21 05:40:00,59.1,58.0,29.94,SW,229,0.0,0.0,95,0.00,,,0.00,weatherlink.com 1.10,2013-05-21 09:40:00,
2013-05-21 05:55:00,59.3,58.0,29.93,SW,229,0.0,0.0,95,0.00,,,0.00,weatherlink.com 1.10,2013-05-21 09:55:00,
2013-05-21 06:10:00,59.8,59.0,29.93,SW,229,0.0,0.0,96,0.00,,,0.00,weatherlink.com 1.10,2013-05-21 10:10:00,
2013-05-21 06:25:00,60.4,59.0,29.94,SW,229,0.0,0.0,96,0.00,,,0.00,weatherlink.com 1.10,2013-05-21 10:25:00,
2013-05-21 06:40:00,61.0,60.0,29.96,SW,229,0.0,1.0,96,0.00,,,0.00,weatherlink.com 1.10,2013-05-21 10:40:00,
2013-05-21 06:55:00,62.1,61.0,29.95,ENE,73,0.0,1.0,96,0.00,,,0.00,weatherlink.com 1.10,2013-05-21 10:55:00,
2013-05-21 07:10:00,62.5,61.0,29.93,North,5,3.0,5.0,94,0.00,,,0.00,weatherlink.com 1.10,2013-05-21 11:10:00,
2013-05-21 07:25:00,62.4,60.0,29.93,SE,126,0.0,4.0,93,0.00,,,0.00,weatherlink.com 1.10,2013-05-21 11:25:00,
2013-05-21 07:40:00,62.6,60.0,29.93,ESE,113,0.0,4.0,92,0.00,,,0.00,weatherlink.com 1.10,2013-05-21 11:40:00,
2013-05-21 07:55:00,62.7,60.0,29.92,East,98,1.0,5.0,91,0.00,,,0.00,weatherlink.com 1.10,2013-05-21 11:55:00,
2013-05-21 08:10:00,63.2,61.0,29.93,NE,51,1.0,5.0,91,0.00,,,0.00,weatherlink.com 1.10,2013-05-21 12:10:00,
2013-05-21 08:25:00,64.0,61.0,29.92,East,93,0.0,4.0,89,0.00,,,0.00,weatherlink.com 1.10,2013-05-21 12:25:00,
2013-05-21 08:40:00,64.1,61.0,29.93,NNW,332,1.0,4.0,88,0.00,,,0.00,weatherlink.com 1.10,2013-05-21 12:40:00,
2013-05-21 08:55:00,65.6,61.0,29.93,NNE,16,0.0,3.0,86,0.00,,,0.00,weatherlink.com 1.10,2013-05-21 12:55:00,
2013-05-21 09:10:00,66.5,62.0,29.93,NNW,333,1.0,3.0,85,0.00,,,0.00,weatherlink.com 1.10,2013-05-21 13:10:00,
2013-05-21 09:25:00,66.7,61.0,29.93,WNW,302,0.0,4.0,83,0.00,,,0.00,weatherlink.com 1.10,2013-05-21 13:25:00,
2013-05-21 09:40:00,67.1,61.0,29.92,NNE,26,0.0,3.0,82,0.00,,,0.00,weatherlink.com 1.10,2013-05-21 13:40:00,
2013-05-21 09:56:00,68.1,62.0,29.92,NNW,327,2.0,3.0,80,0.00,,,0.00,weatherlink.com 1.10,2013-05-21 13:56:00,
2013-05-21 10:11:00,69.9,62.0,29.91,NNW,333,1.0,3.0,77,0.00,,,0.00,weatherlink.com 1.10,2013-05-21 14:11:00,
2013-05-21 10:26:00,70.6,63.0,29.90,ESE,104,2.0,4.0,76,0.00,,,0.00,weatherlink.com 1.10,2013-05-21 14:26:00,
2013-05-21 10:41:00,72.3,63.0,29.90,NNW,335,1.0,3.0,73,0.00,,,0.00,weatherlink.com 1.10,2013-05-21 14:41:00,
2013-05-21 10:56:00,73.3,64.0,29.89,ESE,118,2.0,4.0,73,0.00,,,0.00,weatherlink.com 1.10,2013-05-21 14:56:00,
2013-05-21 11:11:00,74.8,64.0,29.88,NNW,343,4.0,4.0,70,0.00,,,0.00,weatherlink.com 1.10,2013-05-21 15:11:00,
2013-05-21 11:26:00,76.3,66.0,29.88,NNW,328,3.0,4.0,70,0.00,,,0.00,weatherlink.com 1.10,2013-05-21 15:26:00,
2013-05-21 11:41:00,77.8,65.0,29.88,NNW,332,3.0,4.0,65,0.00,,,0.00,weatherlink.com 1.10,2013-05-21 15:41:00,
2013-05-21 11:56:00,78.4,66.0,29.88,East,88,1.0,4.0,66,0.00,,,0.00,weatherlink.com 1.10,2013-05-21 15:56:00,
2013-05-21 12:11:00,78.7,65.0,29.87,NNE,19,3.0,4.0,64,0.00,,,0.00,weatherlink.com 1.10,2013-05-21 16:11:00,
2013-05-21 12:26:00,79.3,66.0,29.86,NNW,336,4.0,5.0,63,0.00,,,0.00,weatherlink.com 1.10,2013-05-21 16:26:00,
2013-05-21 12:41:00,80.4,66.0,29.85,NNE,12,5.0,5.0,61,0.00,,,0.00,weatherlink.com 1.10,2013-05-21 16:41:00,
2013-05-21 12:56:00,80.9,66.0,29.85,East,95,5.0,6.0,60,0.00,,,0.00,weatherlink.com 1.10,2013-05-21 16:56:00,
2013-05-21 13:12:00,81.4,66.0,29.85,NNE,12,2.0,5.0,60,0.00,,,0.00,weatherlink.com 1.10,2013-05-21 17:12:00,
2013-05-21 13:26:00,82.5,66.0,29.85,ESE,121,2.0,4.0,58,0.00,,,0.00,weatherlink.com 1.10,2013-05-21 17:26:00,
2013-05-21 13:41:00,81.1,65.0,29.85,NNE,16,2.0,7.0,58,0.00,,,0.00,weatherlink.com 1.10,2013-05-21 17:41:00,
2013-05-21 14:11:00,77.8,63.0,29.86,East,96,3.0,7.0,60,0.00,,,0.00,weatherlink.com 1.10,2013-05-21 18:11:00,
2013-05-21 14:26:00,76.3,63.0,29.86,NNW,336,3.0,11.0,63,0.00,,,0.00,weatherlink.com 1.10,2013-05-21 18:26:00,
2013-05-21 14:41:00,74.6,62.0,29.86,East,79,6.0,9.0,65,0.00,,,0.00,weatherlink.com 1.10,2013-05-21 18:41:00,
2013-05-21 14:56:00,74.5,62.0,29.86,NNW,348,1.0,7.0,65,0.00,,,0.00,weatherlink.com 1.10,2013-05-21 18:56:00,
2013-05-21 15:11:00,72.7,60.0,29.87,ENE,65,2.0,12.0,64,0.00,,,0.00,weatherlink.com 1.10,2013-05-21 19:11:00,
2013-05-21 15:26:00,69.5,58.0,29.88,NW,306,5.0,11.0,68,0.00,,,0.00,weatherlink.com 1.10,2013-05-21 19:26:00,
2013-05-21 15:41:00,68.1,58.0,29.89,SSE,156,2.0,9.0,69,0.00,,,0.00,weatherlink.com 1.10,2013-05-21 19:41:00,
2013-05-21 15:56:00,66.1,57.0,29.89,ESE,107,3.0,7.0,72,0.00,,,0.00,weatherlink.com 1.10,2013-05-21 19:56:00,
2013-05-21 16:11:00,64.9,56.0,29.89,NNW,338,2.0,11.0,74,0.00,,,0.00,weatherlink.com 1.10,2013-05-21 20:11:00,
2013-05-21 16:26:00,64.5,56.0,29.90,NNW,340,4.0,7.0,74,0.00,,,0.00,weatherlink.com 1.10,2013-05-21 20:26:00,
2013-05-21 16:41:00,63.6,55.0,29.91,ENE,61,8.0,9.0,74,0.00,,,0.00,weatherlink.com 1.10,2013-05-21 20:41:00,
2013-05-21 16:56:00,61.8,54.0,29.92,NNW,340,3.0,10.0,76,0.00,,,0.00,weatherlink.com 1.10,2013-05-21 20:56:00,
2013-05-21 17:11:00,60.2,54.0,29.92,NNE,24,1.0,5.0,79,0.00,,,0.00,weatherlink.com 1.10,2013-05-21 21:11:00,
2013-05-21 17:26:00,58.9,53.0,29.92,NNW,338,2.0,9.0,80,0.00,,,0.00,weatherlink.com 1.10,2013-05-21 21:26:00,
2013-05-21 17:41:00,57.8,52.0,29.92,NNE,23,5.0,7.0,82,0.00,,,0.00,weatherlink.com 1.10,2013-05-21 21:41:00,
2013-05-21 17:57:00,56.9,52.0,29.93,NW,323,2.0,11.0,82,0.00,,,0.00,weatherlink.com 1.10,2013-05-21 21:57:00,
2013-05-21 18:12:00,56.1,51.0,29.96,West,261,1.0,9.0,84,0.00,,,0.00,weatherlink.com 1.10,2013-05-21 22:12:00,
2013-05-21 18:27:00,55.8,51.0,29.97,West,268,1.0,6.0,84,0.00,,,0.00,weatherlink.com 1.10,2013-05-21 22:27:00,
2013-05-21 18:42:00,55.4,51.0,29.98,NNE,13,3.0,10.0,84,0.00,,,0.00,weatherlink.com 1.10,2013-05-21 22:42:00,
2013-05-21 18:57:00,55.2,51.0,29.99,NNW,331,0.0,5.0,84,0.00,,,0.00,weatherlink.com 1.10,2013-05-21 22:57:00,
2013-05-21 19:12:00,54.7,51.0,29.97,NW,306,1.0,7.0,87,0.06,,,0.06,weatherlink.com 1.10,2013-05-21 23:12:00,
2013-05-21 19:27:00,53.6,51.0,29.96,NNW,348,1.0,5.0,90,0.07,,,0.07,weatherlink.com 1.10,2013-05-21 23:27:00,
2013-05-21 19:42:00,53.5,51.0,29.98,NNW,343,0.0,6.0,91,0.07,,,0.07,weatherlink.com 1.10,2013-05-21 23:42:00,
2013-05-21 19:57:00,53.4,51.0,29.98,WSW,249,0.0,5.0,92,0.07,,,0.07,weatherlink.com 1.10,2013-05-21 23:57:00,
2013-05-21 20:12:00,53.2,51.0,29.98,ENE,75,0.0,3.0,92,0.01,,,0.07,weatherlink.com 1.10,2013-05-22 00:12:00,
2013-05-21 20:27:00,52.9,51.0,29.98,NNW,333,0.0,3.0,92,0.00,,,0.07,weatherlink.com 1.10,2013-05-22 00:27:00,
2013-05-21 20:42:00,52.6,50.0,29.98,North,10,2.0,3.0,92,0.00,,,0.07,weatherlink.com 1.10,2013-05-22 00:42:00,
2013-05-21 20:57:00,52.3,50.0,29.96,ENE,77,1.0,5.0,92,0.00,,,0.07,weatherlink.com 1.10,2013-05-22 00:57:00,
2013-05-21 21:12:00,52.2,50.0,29.96,NNW,338,3.0,5.0,92,0.00,,,0.07,weatherlink.com 1.10,2013-05-22 01:12:00,
2013-05-21 21:27:00,52.2,50.0,29.95,West,281,1.0,7.0,92,0.00,,,0.07,weatherlink.com 1.10,2013-05-22 01:27:00,
2013-05-21 21:42:00,52.1,50.0,29.96,NNW,331,0.0,6.0,92,0.00,,,0.07,weatherlink.com 1.10,2013-05-22 01:42:00,
2013-05-21 21:57:00,52.0,50.0,29.97,North,349,0.0,7.0,92,0.00,,,0.07,weatherlink.com 1.10,2013-05-22 01:57:00,
2013-05-21 22:12:00,52.0,50.0,29.98,ENE,62,0.0,3.0,93,0.00,,,0.07,weatherlink.com 1.10,2013-05-22 02:12:00,
2013-05-21 22:27:00,51.9,50.0,29.97,ESE,109,1.0,3.0,93,0.00,,,0.07,weatherlink.com 1.10,2013-05-22 02:27:00,
2013-05-21 22:42:00,51.9,50.0,29.96,NNW,338,0.0,4.0,93,0.00,,,0.07,weatherlink.com 1.10,2013-05-22 02:42:00,
2013-05-21 22:57:00,51.8,50.0,29.95,NNW,338,0.0,4.0,93,0.00,,,0.07,weatherlink.com 1.10,2013-05-22 02:57:00,
2013-05-21 23:12:00,51.7,50.0,29.97,NNW,330,0.0,4.0,93,0.00,,,0.07,weatherlink.com 1.10,2013-05-22 03:12:00,
2013-05-21 23:27:00,51.8,50.0,29.97,NNW,342,0.0,3.0,93,0.00,,,0.07,weatherlink.com 1.10,2013-05-22 03:27:00,
2013-05-21 23:42:00,51.7,50.0,29.96,NW,306,0.0,6.0,93,0.00,,,0.07,weatherlink.com 1.10,2013-05-22 03:42:00,
2013-05-21 23:57:00,51.8,50.0,29.99,NNW,332,1.0,3.0,93,0.00,,,0.07,weatherlink.com 1.10,2013-05-22 03:57:00,